EGMD

Lydd Airport

Lydd, Ashford, United Kingdom
METAR EGMD 260250Z AUTO 07023KT 9999 BKN032/// BKN037/// 00/M07 Q1029
Observed Flight Rules
Feb-26 @ 02:50 UTC (40 minutes ago) Visual Flight Rules
Wind Visibility Clouds
70° at 23 knots 10,000+ meters
  • Broken at 3,200' AGL
  • Broken at 3,700' AGL
Temperatures Readings
Current 0°C / 32°F
Dewpoint -7°C / 19°F
Humidity 60%
Altimeter 30.38" Hg
Pressure 1029 hPa
Elevation 3
METAR EGMD 260250Z AUTO 07023KT 9999 BKN032/// BKN037/// 00/M07 Q1029
Observed Flight Rules
Feb-26 @ 02:50 UTC
(40 minutes ago)
VFR
Wind Visibility
70° at 23 knots 10,000+ meters
Clouds
  • Broken at 3,200' AGL
  • Broken at 3,700' AGL
Temperature Dewpoint
0°C / 32°F -7°C / 19°F
Humidity Altimeter Pressure
60% 30.38" Hg 1029 hPa